HEGN METAR and TAF | Updated Today

HEGN METAR

Hurghada International Airport

Observation time: 74 min. ago

HEGN 010800Z 35011KT CAVOK 35/13 Q1014 NOSIG

Need help? Read our tutorial on how to read METARs or read the parsed version below.

Hurghada International Airport (HEGN) METAR

  • Weather conditions on Sat, 01 Oct 2022 08:00:00 +0000 (74 min. ago):
  • Present conditions: Dry
  • Clouds: Clear skies
  • Visibility: Greater than 10 km
  • Wind: 350 degrees at 11 knots
  • Temperature: 35 celsius
  • Dew point: 13 celsius
  • Pressure: 1014 millibars
  • Remarks: None


Useful to know...

HEGN TAF

Hurghada International Airport

TAF HEGN 010500Z 0106/0212 33012KT CAVOK
Observation time: 4:14 hr. ago
Need help? Read our tutorial on how to read TAFs or read the parsed version below.

Parsed version of TAF for Hurghada International Airport (HEGN)

  • From 01 October at 06:00 UTC, to day 02 of the month at 12:00 UTC
  • Visibility: Greater than 10 km
  • Wind: 330 degrees at 12

Airports near HEGN

No airports found within 100nm radius.